Time;durP1;ratioP1;P1;durP2;ratioP2;P2;SDS_P1;SDS_P2;PMS_P1;PMS_P2;Temp;Humidity;BMP_temperature;BMP_pressure;BME280_temperature;BME280_humidity;BME280_pressure;Samples;Min_cycle;Max_cycle;Signal;HPM_P1;HPM_P2
2021/06/22 00:01:54;;;;;;;17.38;12.25;;;;;;;;;;5016516;28;20381;-64
2021/06/22 00:04:21;;;;;;;16.77;12.35;;;;;;;;;;5016430;28;20105;-64
2021/06/22 00:06:47;;;;;;;16.38;12.48;;;;;;;;;;5016380;28;20034;-63
2021/06/22 00:09:13;;;;;;;16.13;12.90;;;;;;;;;;5014767;28;20026;-63
2021/06/22 00:11:40;;;;;;;15.93;12.60;;;;;;;;;;5016366;28;20069;-64
2021/06/22 00:14:06;;;;;;;23.27;12.95;;;;;;;;;;5016302;28;20490;-63
2021/06/22 00:16:33;;;;;;;18.40;13.48;;;;;;;;;;5016251;28;20073;-63
2021/06/22 00:18:59;;;;;;;22.88;13.18;;;;;;;;;;5016251;28;20466;-65
2021/06/22 00:21:26;;;;;;;17.88;13.00;;;;;;;;;;5015927;28;20383;-63
2021/06/22 00:23:52;;;;;;;16.48;12.57;;;;;;;;;;5016068;28;20034;-64
2021/06/22 00:26:18;;;;;;;13.75;11.85;;;;;;;;;;5014636;28;20439;-64
2021/06/22 00:28:44;;;;;;;24.13;13.32;;;;;;;;;;5015739;28;20026;-65
2021/06/22 00:31:12;;;;;;;22.08;13.57;;;;;;;;;;5015950;28;20157;-64
2021/06/22 00:33:38;;;;;;;16.67;12.82;;;;;;;;;;5015934;28;20022;-64
2021/06/22 00:36:05;;;;;;;21.38;14.38;;;;;;;;;;5015105;28;20493;-63
2021/06/22 00:38:31;;;;;;;18.60;13.90;;;;;;;;;;5014670;28;20022;-64
2021/06/22 00:40:57;;;;;;;19.42;14.15;;;;;;;;;;5014331;28;20064;-65
2021/06/22 00:43:23;;;;;;;20.30;13.95;;;;;;;;;;5014662;28;20030;-64
2021/06/22 00:45:49;;;;;;;18.20;13.35;;;;;;;;;;5014602;28;20026;-64
2021/06/22 00:48:16;;;;;;;19.27;14.27;;;;;;;;;;5014508;28;20030;-62
2021/06/22 00:50:42;;;;;;;18.55;13.98;;;;;;;;;;5014162;28;20482;-64
2021/06/22 00:53:08;;;;;;;23.83;16.42;;;;;;;;;;5014563;28;20021;-63
2021/06/22 00:55:35;;;;;;;25.55;15.52;;;;;;;;;;5014459;28;20055;-63
2021/06/22 00:58:01;;;;;;;22.95;16.63;;;;;;;;;;5014687;28;20091;-63
2021/06/22 01:00:27;;;;;;;24.85;16.00;;;;;;;;;;5013313;28;20032;-63
2021/06/22 01:02:55;;;;;;;25.20;16.52;;;;;;;;;;5014358;28;20021;-64
2021/06/22 01:05:21;;;;;;;25.27;16.73;;;;;;;;;;5014058;28;20509;-64
2021/06/22 01:07:48;;;;;;;26.77;18.02;;;;;;;;;;5012897;28;20545;-64
2021/06/22 01:10:14;;;;;;;28.05;17.52;;;;;;;;;;5014340;28;20481;-63
2021/06/22 01:12:40;;;;;;;24.55;16.33;;;;;;;;;;5014002;28;20038;-63
2021/06/22 01:15:14;;;;;;;24.27;17.55;;;;;;;;;;5013911;28;20096;-63
2021/06/22 01:17:40;;;;;;;21.63;16.08;;;;;;;;;;5014107;28;20034;-63
2021/06/22 01:20:07;;;;;;;22.23;15.88;;;;;;;;;;5012805;28;20038;-65
2021/06/22 01:22:33;;;;;;;23.25;13.98;;;;;;;;;;5014084;28;20109;-64
2021/06/22 01:24:59;;;;;;;20.15;15.15;;;;;;;;;;5012726;28;20029;-64
2021/06/22 01:27:25;;;;;;;22.73;16.73;;;;;;;;;;5013906;28;20565;-65
2021/06/22 01:29:52;;;;;;;22.30;15.38;;;;;;;;;;5012907;28;20533;-66
2021/06/22 01:32:18;;;;;;;30.90;16.88;;;;;;;;;;5013924;28;20022;-66
2021/06/22 01:34:45;;;;;;;19.75;15.07;;;;;;;;;;5008891;28;157058;-63
2021/06/22 01:37:11;;;;;;;29.17;15.80;;;;;;;;;;5029306;28;20393;-63
2021/06/22 01:39:38;;;;;;;28.27;16.48;;;;;;;;;;5013370;28;20124;-64
2021/06/22 01:42:04;;;;;;;26.83;16.17;;;;;;;;;;5013354;28;20033;-66
2021/06/22 01:44:33;;;;;;;30.38;16.08;;;;;;;;;;5013282;28;20026;-64
2021/06/22 01:46:59;;;;;;;25.63;15.35;;;;;;;;;;5014143;28;20445;-65
2021/06/22 01:49:25;;;;;;;26.25;15.45;;;;;;;;;;5013173;28;20084;-65
2021/06/22 01:51:51;;;;;;;24.45;15.68;;;;;;;;;;5014424;28;20030;-64
2021/06/22 01:54:17;;;;;;;26.00;16.48;;;;;;;;;;5014384;28;20058;-64
2021/06/22 01:56:51;;;;;;;28.15;15.43;;;;;;;;;;5014083;28;20172;-65
2021/06/22 01:59:17;;;;;;;28.95;15.80;;;;;;;;;;5014398;28;20018;-63
2021/06/22 02:01:44;;;;;;;25.00;15.52;;;;;;;;;;5014308;28;20079;-64
2021/06/22 02:04:11;;;;;;;24.73;14.75;;;;;;;;;;5014290;28;20017;-63
2021/06/22 02:06:38;;;;;;;26.75;15.02;;;;;;;;;;5012803;28;20030;-64
2021/06/22 02:09:05;;;;;;;27.15;14.13;;;;;;;;;;5014179;28;20057;-64
2021/06/22 02:11:32;;;;;;;30.80;14.75;;;;;;;;;;5014113;28;20101;-64
2021/06/22 02:13:58;;;;;;;20.10;12.95;;;;;;;;;;5013640;28;20110;-65
2021/06/22 02:16:24;;;;;;;24.10;14.93;;;;;;;;;;5012723;28;20029;-64
2021/06/22 02:18:50;;;;;;;26.45;14.73;;;;;;;;;;5012681;28;20026;-64
2021/06/22 02:21:16;;;;;;;29.23;14.35;;;;;;;;;;5013914;28;20021;-65
2021/06/22 02:23:43;;;;;;;23.60;14.20;;;;;;;;;;5013921;28;20061;-62
2021/06/22 02:26:09;;;;;;;29.88;14.32;;;;;;;;;;5013505;28;20494;-64
2021/06/22 02:28:35;;;;;;;29.13;14.23;;;;;;;;;;5013813;28;20037;-64
2021/06/22 02:31:01;;;;;;;23.73;13.98;;;;;;;;;;5012484;28;20065;-65
2021/06/22 02:33:28;;;;;;;22.10;14.52;;;;;;;;;;5012497;28;20026;-64
2021/06/22 02:35:54;;;;;;;22.25;13.45;;;;;;;;;;5013659;28;20103;-64
2021/06/22 02:38:21;;;;;;;26.90;13.95;;;;;;;;;;5012388;28;20117;-64
2021/06/22 02:40:47;;;;;;;22.67;13.75;;;;;;;;;;5013907;28;20034;-64
2021/06/22 02:43:14;;;;;;;22.25;14.48;;;;;;;;;;5012339;28;20028;-64
2021/06/22 02:45:40;;;;;;;24.52;14.35;;;;;;;;;;5012302;28;20069;-64
2021/06/22 02:48:10;;;;;;;20.20;14.23;;;;;;;;;;5012187;28;20122;-63
2021/06/22 02:50:39;;;;;;;23.20;14.85;;;;;;;;;;5013556;28;20022;-64
2021/06/22 02:53:05;;;;;;;20.75;13.80;;;;;;;;;;5013213;28;20482;-63
2021/06/22 02:55:32;;;;;;;19.45;13.98;;;;;;;;;;5012138;28;20053;-64
2021/06/22 02:57:58;;;;;;;19.67;13.70;;;;;;;;;;5013671;28;20037;-63
2021/06/22 03:00:29;;;;;;;23.85;15.00;;;;;;;;;;5013412;28;20026;-63
2021/06/22 03:02:55;;;;;;;27.35;16.20;;;;;;;;;;5013407;28;20101;-65
2021/06/22 03:05:22;;;;;;;23.42;15.68;;;;;;;;;;5013385;28;20060;-64
2021/06/22 03:07:49;;;;;;;24.40;16.33;;;;;;;;;;5013263;28;20022;-64
2021/06/22 03:10:16;;;;;;;20.45;15.27;;;;;;;;;;5011995;28;20517;-64
2021/06/22 03:12:42;;;;;;;23.80;15.90;;;;;;;;;;5013283;28;20061;-64
2021/06/22 03:15:11;;;;;;;24.00;16.40;;;;;;;;;;5012972;28;20540;-65
2021/06/22 03:17:37;;;;;;;21.75;16.40;;;;;;;;;;5013263;28;20493;-64
2021/06/22 03:20:07;;;;;;;26.63;16.70;;;;;;;;;;5013243;28;20033;-66
2021/06/22 03:22:34;;;;;;;18.98;14.95;;;;;;;;;;5013355;28;20045;-64
2021/06/22 03:25:00;;;;;;;21.00;15.63;;;;;;;;;;5012386;28;20084;-66
2021/06/22 03:27:26;;;;;;;24.13;14.65;;;;;;;;;;5016786;28;20140;-64
2021/06/22 03:29:52;;;;;;;18.33;15.52;;;;;;;;;;5017115;28;20113;-64
2021/06/22 03:32:20;;;;;;;20.65;15.90;;;;;;;;;;5015787;28;20018;-65
2021/06/22 03:34:46;;;;;;;23.55;15.05;;;;;;;;;;5016894;28;20037;-64
2021/06/22 03:37:12;;;;;;;23.15;15.63;;;;;;;;;;5017037;28;20069;-64
2021/06/22 03:39:38;;;;;;;21.30;15.85;;;;;;;;;;5016643;28;20168;-63
2021/06/22 03:42:05;;;;;;;23.95;16.25;;;;;;;;;;5016946;28;20026;-67
2021/06/22 03:44:33;;;;;;;26.83;16.02;;;;;;;;;;5016862;28;20078;-64
2021/06/22 03:46:59;;;;;;;23.55;17.20;;;;;;;;;;5016497;28;20100;-65
2021/06/22 03:49:26;;;;;;;27.25;17.00;;;;;;;;;;5016745;28;20033;-64
2021/06/22 03:51:53;;;;;;;29.80;16.67;;;;;;;;;;5016388;28;20108;-63
2021/06/22 03:54:20;;;;;;;26.25;18.08;;;;;;;;;;5015408;28;20057;-63
2021/06/22 03:56:46;;;;;;;47.65;26.77;;;;;;;;;;5016607;28;20117;-64
2021/06/22 03:59:12;;;;;;;59.30;36.55;;;;;;;;;;5016474;28;20097;-63
2021/06/22 04:01:38;;;;;;;93.68;55.20;;;;;;;;;;5016524;28;20637;-63
2021/06/22 04:04:04;;;;;;;97.20;53.85;;;;;;;;;;5016786;28;20022;-63
2021/06/22 04:06:31;;;;;;;95.32;55.22;;;;;;;;;;5015027;28;20121;-65
2021/06/22 04:09:00;;;;;;;79.13;47.22;;;;;;;;;;5016599;28;20113;-63
2021/06/22 04:11:28;;;;;;;70.57;43.70;;;;;;;;;;5016293;28;20470;-62
2021/06/22 04:13:54;;;;;;;51.92;32.17;;;;;;;;;;5016386;28;20021;-63
2021/06/22 04:16:20;;;;;;;54.60;33.30;;;;;;;;;;5016252;28;20057;-65
2021/06/22 04:18:46;;;;;;;46.35;29.17;;;;;;;;;;5015955;28;20488;-66
2021/06/22 04:21:13;;;;;;;41.88;26.73;;;;;;;;;;5016174;28;20029;-64
2021/06/22 04:23:39;;;;;;;46.85;27.00;;;;;;;;;;5016168;28;20026;-65
2021/06/22 04:26:06;;;;;;;38.13;26.05;;;;;;;;;;5016056;28;20505;-63
2021/06/22 04:28:32;;;;;;;46.05;29.45;;;;;;;;;;5014402;28;20038;-65
2021/06/22 04:30:58;;;;;;;44.72;27.40;;;;;;;;;;5014996;28;20374;-64
2021/06/22 04:33:24;;;;;;;46.10;26.40;;;;;;;;;;5015949;28;20034;-64
2021/06/22 04:35:51;;;;;;;50.65;29.98;;;;;;;;;;5013969;28;20054;-64
2021/06/22 04:38:17;;;;;;;53.65;29.95;;;;;;;;;;5016145;28;20037;-64
2021/06/22 04:40:43;;;;;;;43.17;29.05;;;;;;;;;;5015467;28;20460;-62
2021/06/22 04:43:10;;;;;;;46.55;29.85;;;;;;;;;;5014391;28;20461;-64
2021/06/22 04:45:36;;;;;;;45.70;27.33;;;;;;;;;;5015709;28;20022;-64
2021/06/22 04:48:03;;;;;;;40.13;23.75;;;;;;;;;;5014317;28;20030;-64
2021/06/22 04:50:29;;;;;;;36.55;25.00;;;;;;;;;;5014173;28;20393;-64
2021/06/22 04:52:56;;;;;;;36.10;24.15;;;;;;;;;;5015770;28;20101;-64
2021/06/22 04:55:25;;;;;;;35.97;24.02;;;;;;;;;;5015297;28;20112;-63
2021/06/22 04:57:51;;;;;;;39.35;24.58;;;;;;;;;;5015498;28;20065;-63
2021/06/22 05:00:17;;;;;;;41.28;25.17;;;;;;;;;;5015492;28;20033;-62
2021/06/22 05:02:44;;;;;;;35.67;24.17;;;;;;;;;;5015088;28;20347;-63
2021/06/22 05:05:11;;;;;;;33.00;22.65;;;;;;;;;;5015317;28;20053;-64
2021/06/22 05:07:38;;;;;;;34.75;22.23;;;;;;;;;;5014885;28;20444;-64
2021/06/22 05:10:04;;;;;;;33.85;20.35;;;;;;;;;;5015280;28;20049;-64
2021/06/22 05:12:31;;;;;;;34.30;20.10;;;;;;;;;;5013877;28;20109;-64
2021/06/22 05:14:57;;;;;;;36.92;21.48;;;;;;;;;;5014849;28;20018;-64
2021/06/22 05:17:23;;;;;;;36.65;20.63;;;;;;;;;;5014746;28;20120;-67
2021/06/22 05:19:49;;;;;;;35.28;21.17;;;;;;;;;;5013749;28;20141;-65
2021/06/22 05:22:16;;;;;;;37.95;20.45;;;;;;;;;;5014855;28;20026;-64
2021/06/22 05:24:42;;;;;;;40.63;21.17;;;;;;;;;;5014954;28;20026;-64
2021/06/22 05:27:09;;;;;;;35.80;21.00;;;;;;;;;;5013470;28;20109;-63
2021/06/22 05:29:36;;;;;;;36.78;18.50;;;;;;;;;;5014812;28;20026;-64
2021/06/22 05:32:02;;;;;;;33.90;17.35;;;;;;;;;;5014423;28;20421;-63
2021/06/22 05:34:29;;;;;;;27.65;17.13;;;;;;;;;;5014596;28;20034;-64
2021/06/22 05:36:55;;;;;;;40.80;17.42;;;;;;;;;;5014265;28;20104;-64
2021/06/22 05:39:21;;;;;;;31.02;16.55;;;;;;;;;;5014704;28;20030;-63
2021/06/22 05:41:47;;;;;;;36.85;18.50;;;;;;;;;;5014617;28;20462;-63
2021/06/22 05:44:13;;;;;;;31.98;17.75;;;;;;;;;;5013152;28;20121;-65
2021/06/22 05:46:40;;;;;;;31.40;18.08;;;;;;;;;;5014340;28;20356;-64
2021/06/22 05:49:06;;;;;;;35.20;17.92;;;;;;;;;;5013636;28;20037;-63
2021/06/22 05:51:32;;;;;;;29.27;16.65;;;;;;;;;;5012760;28;20032;-63
2021/06/22 05:53:58;;;;;;;34.33;17.10;;;;;;;;;;5014294;28;20021;-65
2021/06/22 05:56:24;;;;;;;35.35;18.77;;;;;;;;;;5014330;28;20037;-64
2021/06/22 05:58:51;;;;;;;29.90;17.95;;;;;;;;;;5014368;28;20423;-65
2021/06/22 06:01:17;;;;;;;31.40;15.75;;;;;;;;;;5014404;28;20033;-65
2021/06/22 06:03:43;;;;;;;34.80;15.55;;;;;;;;;;5014013;28;20104;-64
2021/06/22 06:06:09;;;;;;;37.28;17.48;;;;;;;;;;5014159;28;20025;-63
2021/06/22 06:08:36;;;;;;;28.50;15.95;;;;;;;;;;5011590;28;20140;-65
2021/06/22 06:11:03;;;;;;;28.13;15.75;;;;;;;;;;5009845;28;20018;-67
2021/06/22 06:13:31;;;;;;;32.75;13.43;;;;;;;;;;5011585;28;20017;-64
2021/06/22 06:15:57;;;;;;;32.63;14.73;;;;;;;;;;5010854;28;20545;-64
2021/06/22 06:18:23;;;;;;;37.60;15.40;;;;;;;;;;5011574;28;20038;-66
2021/06/22 06:20:51;;;;;;;37.03;13.57;;;;;;;;;;5013308;28;20418;-64
2021/06/22 06:23:17;;;;;;;34.00;12.40;;;;;;;;;;5012500;28;20018;-66
2021/06/22 06:25:44;;;;;;;36.10;13.13;;;;;;;;;;5013277;28;20109;-65
2021/06/22 06:28:19;;;;;;;40.25;13.18;;;;;;;;;;5013814;28;20026;-65
2021/06/22 06:30:45;;;;;;;29.67;11.82;;;;;;;;;;5013824;28;20029;-64
2021/06/22 06:33:13;;;;;;;27.08;12.90;;;;;;;;;;5013716;28;20022;-64
2021/06/22 06:35:39;;;;;;;43.38;11.55;;;;;;;;;;5013241;28;20134;-65
2021/06/22 06:38:06;;;;;;;38.63;12.70;;;;;;;;;;5012960;28;20034;-64
2021/06/22 06:40:32;;;;;;;32.13;13.18;;;;;;;;;;5013626;28;20494;-64
2021/06/22 06:42:58;;;;;;;30.48;12.63;;;;;;;;;;5013547;28;20188;-64
2021/06/22 06:45:25;;;;;;;31.15;12.43;;;;;;;;;;5013089;28;20029;-66
2021/06/22 06:47:51;;;;;;;29.42;11.88;;;;;;;;;;5011737;28;20034;-64
2021/06/22 06:50:17;;;;;;;29.83;11.63;;;;;;;;;;5013557;28;20382;-64
2021/06/22 06:52:43;;;;;;;32.17;11.73;;;;;;;;;;5013768;28;20053;-66
2021/06/22 06:55:29;;;;;;;34.78;12.88;;;;;;;;;;5013507;28;20032;-65
2021/06/22 06:57:56;;;;;;;38.33;11.98;;;;;;;;;;5013512;28;20037;-65
2021/06/22 07:00:23;;;;;;;25.70;11.90;;;;;;;;;;5013083;28;20025;-65
2021/06/22 07:02:50;;;;;;;33.22;12.90;;;;;;;;;;5012046;28;20092;-65
2021/06/22 07:05:16;;;;;;;29.58;12.10;;;;;;;;;;5013350;28;20474;-63
2021/06/22 07:07:42;;;;;;;40.20;12.90;;;;;;;;;;5013139;28;20088;-65
2021/06/22 07:10:08;;;;;;;32.67;11.43;;;;;;;;;;5013524;28;20110;-65
2021/06/22 07:12:35;;;;;;;31.08;12.55;;;;;;;;;;5011948;28;20029;-65
2021/06/22 07:15:01;;;;;;;34.15;12.90;;;;;;;;;;5013256;28;20497;-64
2021/06/22 07:17:27;;;;;;;29.80;11.93;;;;;;;;;;5013246;28;20041;-64
2021/06/22 07:19:53;;;;;;;33.70;11.80;;;;;;;;;;5012883;28;20030;-63
2021/06/22 07:22:20;;;;;;;32.55;13.55;;;;;;;;;;5012878;28;20104;-64
2021/06/22 07:24:47;;;;;;;34.58;13.35;;;;;;;;;;5013110;28;20041;-65
2021/06/22 07:27:13;;;;;;;38.63;12.50;;;;;;;;;;5013083;28;20037;-65
2021/06/22 07:29:39;;;;;;;30.92;11.45;;;;;;;;;;5013081;28;20032;-64
2021/06/22 07:32:05;;;;;;;34.22;13.00;;;;;;;;;;5013348;28;20422;-64
2021/06/22 07:35:05;;;;;;;35.95;12.23;;;;;;;;;;5011942;28;20030;-64
2021/06/22 07:37:32;;;;;;;37.90;12.35;;;;;;;;;;5012643;28;20100;-64
2021/06/22 07:39:58;;;;;;;38.90;12.23;;;;;;;;;;5013284;28;20053;-64
2021/06/22 07:42:25;;;;;;;31.40;11.73;;;;;;;;;;5012978;28;20018;-64
2021/06/22 07:44:51;;;;;;;37.60;12.48;;;;;;;;;;5013002;28;20037;-64
2021/06/22 07:47:18;;;;;;;31.70;10.18;;;;;;;;;;5012831;28;20030;-65
2021/06/22 07:49:44;;;;;;;28.08;9.35;;;;;;;;;;5011597;28;20030;-66
2021/06/22 07:52:11;;;;;;;31.15;9.23;;;;;;;;;;5012590;28;20492;-66
2021/06/22 07:54:37;;;;;;;29.30;9.32;;;;;;;;;;5011495;28;20030;-67
2021/06/22 07:57:03;;;;;;;32.00;8.40;;;;;;;;;;5012852;28;20033;-65
2021/06/22 07:59:29;;;;;;;25.20;7.57;;;;;;;;;;5012564;28;20036;-65
2021/06/22 08:01:56;;;;;;;24.30;7.90;;;;;;;;;;5012836;28;20033;-65
2021/06/22 08:04:22;;;;;;;29.25;7.82;;;;;;;;;;5011494;28;20405;-65
2021/06/22 08:06:51;;;;;;;29.17;7.90;;;;;;;;;;5012368;28;20505;-66
2021/06/22 08:09:18;;;;;;;24.25;7.80;;;;;;;;;;5011034;28;20044;-65
2021/06/22 08:11:44;;;;;;;43.53;8.25;;;;;;;;;;5013740;28;20115;-65
2021/06/22 08:14:10;;;;;;;31.70;7.57;;;;;;;;;;5015838;28;20032;-64
2021/06/22 08:16:36;;;;;;;36.53;8.10;;;;;;;;;;5016049;28;20049;-65
2021/06/22 08:19:03;;;;;;;33.90;9.00;;;;;;;;;;5014682;28;20405;-65
2021/06/22 08:21:29;;;;;;;24.30;6.75;;;;;;;;;;5015768;28;20036;-65
2021/06/22 08:23:55;;;;;;;22.42;7.25;;;;;;;;;;5016709;28;20037;-64
2021/06/22 08:26:22;;;;;;;34.33;8.95;;;;;;;;;;5017203;28;20657;-65
2021/06/22 08:28:48;;;;;;;31.73;9.00;;;;;;;;;;5015636;28;20557;-65
2021/06/22 08:31:16;;;;;;;27.50;7.68;;;;;;;;;;5017140;28;20058;-64
2021/06/22 08:33:42;;;;;;;33.72;8.85;;;;;;;;;;5015739;28;20152;-66
2021/06/22 08:36:09;;;;;;;24.98;9.40;;;;;;;;;;5018160;28;20054;-65
2021/06/22 08:38:35;;;;;;;32.42;8.32;;;;;;;;;;5016178;28;20101;-64
2021/06/22 08:41:01;;;;;;;29.17;8.10;;;;;;;;;;5015947;28;20835;-67
2021/06/22 08:43:27;;;;;;;44.72;13.13;;;;;;;;;;5015754;28;20080;-65
2021/06/22 08:45:53;;;;;;;30.58;9.98;;;;;;;;;;5015592;28;20029;-65
2021/06/22 08:48:20;;;;;;;38.83;15.57;;;;;;;;;;5015301;28;20029;-65
2021/06/22 08:50:47;;;;;;;44.08;18.58;;;;;;;;;;5015455;28;20077;-66
2021/06/22 08:53:14;;;;;;;44.17;16.42;;;;;;;;;;5015891;28;20054;-67
2021/06/22 08:55:41;;;;;;;40.30;17.95;;;;;;;;;;5015453;28;20054;-67
2021/06/22 08:58:09;;;;;;;39.45;15.63;;;;;;;;;;5015470;28;20041;-66
2021/06/22 09:00:38;;;;;;;33.03;12.77;;;;;;;;;;5015416;28;20088;-65
2021/06/22 09:03:07;;;;;;;37.78;13.88;;;;;;;;;;5015363;28;20105;-65
2021/06/22 09:05:33;;;;;;;49.72;19.40;;;;;;;;;;5014875;28;20029;-65
2021/06/22 09:08:00;;;;;;;39.55;19.00;;;;;;;;;;5013827;28;20030;-64
2021/06/22 09:10:29;;;;;;;43.50;20.30;;;;;;;;;;5015121;28;20032;-64
2021/06/22 09:12:55;;;;;;;33.22;15.20;;;;;;;;;;5013590;28;20022;-64
2021/06/22 09:15:26;;;;;;;30.70;12.45;;;;;;;;;;5013777;28;20205;-65
2021/06/22 09:17:52;;;;;;;;;;;;;;;;;;5015558;28;20026;-65
2021/06/22 09:20:48;;;;;;;42.35;18.38;;;;;;;;;;5014807;28;19913;-65
2021/06/22 09:23:14;;;;;;;45.20;17.88;;;;;;;;;;5004963;28;20109;-65
2021/06/22 09:25:40;;;;;;;45.67;19.75;;;;;;;;;;5015026;28;20097;-67
2021/06/22 09:28:06;;;;;;;49.50;25.58;;;;;;;;;;5014844;28;20026;-65
2021/06/22 09:30:36;;;;;;;45.95;23.55;;;;;;;;;;5014866;28;20029;-65
2021/06/22 09:33:15;;;;;;;40.05;18.75;;;;;;;;;;5014574;28;20105;-67
2021/06/22 09:35:41;;;;;;;33.80;14.82;;;;;;;;;;5014465;28;20042;-68
2021/06/22 09:38:08;;;;;;;33.70;14.27;;;;;;;;;;5014633;28;20022;-66
2021/06/22 09:40:34;;;;;;;57.28;29.48;;;;;;;;;;5014681;28;20025;-67
2021/06/22 09:43:00;;;;;;;69.28;39.00;;;;;;;;;;5014638;28;20033;-67
2021/06/22 09:45:29;;;;;;;70.90;39.00;;;;;;;;;;5014534;28;20029;-68
2021/06/22 09:47:59;;;;;;;70.80;37.47;;;;;;;;;;5014477;28;20073;-66
2021/06/22 09:50:38;;;;;;;76.38;35.38;;;;;;;;;;5014553;28;20032;-66
2021/06/22 09:53:22;;;;;;;44.50;19.02;;;;;;;;;;5013127;28;20446;-66
2021/06/22 09:55:49;;;;;;;40.08;17.70;;;;;;;;;;5013115;28;20109;-66
2021/06/22 09:58:15;;;;;;;27.88;9.27;;;;;;;;;;5012973;28;20109;-64
2021/06/22 10:00:41;;;;;;;115.30;18.15;;;;;;;;;;5014268;28;20121;-65
2021/06/22 10:03:08;;;;;;;39.30;14.85;;;;;;;;;;5012828;28;20026;-65
2021/06/22 10:05:50;;;;;;;26.40;6.72;;;;;;;;;;5014194;28;20021;-65
2021/06/22 10:08:16;;;;;;;36.20;7.97;;;;;;;;;;5014134;28;20370;-64
2021/06/22 10:10:42;;;;;;;34.17;6.32;;;;;;;;;;5012878;28;20069;-65
2021/06/22 10:13:09;;;;;;;61.95;27.55;;;;;;;;;;5013940;28;20366;-65
2021/06/22 10:15:35;;;;;;;35.58;14.05;;;;;;;;;;5012619;28;20030;-64
2021/06/22 10:18:02;;;;;;;27.13;11.48;;;;;;;;;;5012326;28;20033;-65
2021/06/22 10:20:28;;;;;;;27.40;7.47;;;;;;;;;;5012513;28;20026;-64
2021/06/22 10:22:54;;;;;;;22.13;6.63;;;;;;;;;;5013877;28;20029;-64
2021/06/22 10:25:21;;;;;;;32.47;6.47;;;;;;;;;;5013645;28;20025;-66
2021/06/22 10:27:51;;;;;;;28.75;6.65;;;;;;;;;;5012268;28;20069;-66
2021/06/22 10:30:20;;;;;;;36.17;7.70;;;;;;;;;;5017042;28;20033;-66
2021/06/22 10:32:46;;;;;;;26.55;6.35;;;;;;;;;;5012181;28;20366;-65
2021/06/22 10:35:14;;;;;;;30.02;6.55;;;;;;;;;;5012945;28;20099;-64
2021/06/22 10:37:47;;;;;;;28.45;5.78;;;;;;;;;;5012916;28;20471;-65
2021/06/22 10:40:23;;;;;;;26.67;5.97;;;;;;;;;;5012250;28;20121;-64
2021/06/22 10:42:52;;;;;;;21.50;6.03;;;;;;;;;;5013586;28;20033;-66
2021/06/22 10:45:19;;;;;;;22.15;6.18;;;;;;;;;;5013341;28;20026;-67
2021/06/22 10:47:46;;;;;;;23.50;4.90;;;;;;;;;;5011829;28;20504;-65
2021/06/22 10:50:14;;;;;;;21.38;5.30;;;;;;;;;;5013326;28;20096;-63
2021/06/22 10:52:47;;;;;;;29.20;6.07;;;;;;;;;;5013393;28;20026;-66
2021/06/22 10:55:20;;;;;;;19.88;5.30;;;;;;;;;;5013268;28;20029;-67
2021/06/22 10:58:02;;;;;;;21.90;5.75;;;;;;;;;;5011381;28;20065;-65
2021/06/22 11:00:41;;;;;;;21.25;5.25;;;;;;;;;;5013574;28;20022;-65
2021/06/22 11:03:22;;;;;;;33.53;5.75;;;;;;;;;;5013581;28;20026;-64
2021/06/22 11:05:48;;;;;;;23.67;6.03;;;;;;;;;;5011327;28;20028;-66
2021/06/22 11:08:15;;;;;;;22.95;6.07;;;;;;;;;;5012874;28;20113;-67
2021/06/22 11:11:13;;;;;;;28.17;5.65;;;;;;;;;;5012975;28;20042;-67
2021/06/22 11:13:42;;;;;;;24.63;6.05;;;;;;;;;;4917062;29;20046;-68
2021/06/22 11:16:14;;;;;;;29.67;6.35;;;;;;;;;;4929521;29;20578;-67
2021/06/22 11:18:55;;;;;;;22.92;5.60;;;;;;;;;;4951901;28;20119;-66
2021/06/22 11:21:25;;;;;;;27.60;6.32;;;;;;;;;;4952357;29;20592;-65
2021/06/22 11:24:03;;;;;;;28.00;6.43;;;;;;;;;;4952027;29;20520;-66
2021/06/22 11:26:47;;;;;;;23.23;5.53;;;;;;;;;;4952242;29;20479;-66
2021/06/22 11:29:14;;;;;;;18.42;5.63;;;;;;;;;;4952072;29;20043;-66
2021/06/22 11:31:43;;;;;;;29.98;6.88;;;43.60;73.80;;;;;;4950740;29;20157;-67
2021/06/22 11:34:11;;;;;;;27.80;5.35;;;43.60;79.20;;;;;;4952193;29;20035;-66
2021/06/22 11:36:43;;;;;;;31.88;5.95;;;43.50;62.50;;;;;;4951827;29;20090;-67
2021/06/22 11:39:19;;;;;;;27.35;5.47;;;43.80;55.00;;;;;;4935531;29;20031;-68
2021/06/22 11:42:09;;;;;;;27.60;6.22;;;43.60;54.40;;;;;;4951898;29;20035;-67
2021/06/22 11:44:36;;;;;;;;;;;44.10;55.50;;;;;;4952613;29;20035;-68
2021/06/22 11:47:06;;;;;;;21.63;5.40;;;;;;;;;;4954335;28;19914;-68
2021/06/22 11:49:39;;;;;;;20.48;7.00;;;44.40;54.10;;;;;;4981170;28;20046;-66
2021/06/22 11:52:06;;;;;;;20.40;5.20;;;44.50;52.70;;;;;;4997048;28;20093;-67
2021/06/22 11:55:02;;;;;;;29.17;5.88;;;44.80;53.70;;;;;;4996980;28;20081;-67
2021/06/22 11:57:33;;;;;;;27.33;5.50;;;45.10;51.90;;;;;;5003591;28;20064;-69
2021/06/22 12:00:11;;;;;;;27.30;6.43;;;45.30;50.90;;;;;;5016424;28;20034;-68
2021/06/22 12:02:37;;;;;;;26.73;5.47;;;45.30;48.70;;;;;;5015129;28;20453;-69
2021/06/22 12:05:14;;;;;;;28.35;5.65;;;45.70;50.10;;;;;;5016083;28;20030;-67
2021/06/22 12:07:53;;;;;;;30.30;5.97;;;;;;;;;;5016215;28;20026;-68
2021/06/22 12:10:20;;;;;;;23.95;5.03;;;;;;;;;;5016308;28;20513;-67
2021/06/22 12:12:48;;;;;;;34.00;7.03;;;46.50;47.30;;;;;;5016288;28;20061;-69
2021/06/22 12:15:15;;;;;;;26.67;5.90;;;;;;;;;;5016220;28;20029;-67
2021/06/22 12:17:49;;;;;;;33.95;6.68;;;;;;;;;;5015135;28;20041;-68
2021/06/22 12:20:26;;;;;;;21.92;5.63;;;47.00;85.00;;;;;;5016169;28;20025;-67
2021/06/22 12:23:02;;;;;;;34.15;5.88;;;47.00;45.80;;;;;;5016118;28;20099;-70
2021/06/22 12:25:33;;;;;;;25.45;6.22;;;47.10;46.40;;;;;;5015226;28;20397;-66
2021/06/22 12:27:59;;;;;;;30.83;5.53;;;47.40;44.10;;;;;;5015362;28;20121;-68
2021/06/22 12:30:34;;;;;;;31.08;6.38;;;47.60;45.00;;;;;;5015959;28;20472;-67
2021/06/22 12:33:08;;;;;;;30.08;6.13;;;47.80;45.20;;;;;;5015766;28;20025;-68
2021/06/22 12:35:34;;;;;;;30.75;6.57;;;47.70;42.50;;;;;;5015446;28;20548;-67
2021/06/22 12:38:12;;;;;;;25.77;6.13;;;47.70;43.00;;;;;;5013761;28;20125;-68
2021/06/22 12:40:43;;;;;;;25.60;7.18;;;47.60;42.90;;;;;;5014274;28;20430;-66
2021/06/22 12:43:09;;;;;;;27.92;6.60;;;48.10;43.10;;;;;;5014209;28;20034;-66
2021/06/22 12:45:35;;;;;;;23.85;6.50;;;48.20;41.80;;;;;;5015676;28;20057;-67
2021/06/22 12:48:02;;;;;;;22.10;6.20;;;48.50;41.50;;;;;;5014230;28;20121;-65
2021/06/22 12:50:36;;;;;;;32.50;7.50;;;48.80;41.80;;;;;;5015386;28;20068;-68
2021/06/22 12:53:02;;;;;;;23.52;6.05;;;48.60;40.70;;;;;;5014301;28;20367;-67
2021/06/22 12:55:38;;;;;;;34.83;6.95;;;48.80;40.60;;;;;;5015486;28;20378;-67
2021/06/22 12:58:06;;;;;;;28.40;6.20;;;48.80;41.20;;;;;;5013008;28;20037;-71
2021/06/22 13:00:51;;;;;;;26.05;6.50;;;49.10;40.70;;;;;;5015241;28;20370;-69
2021/06/22 13:03:19;;;;;;;30.85;5.68;;;49.20;41.20;;;;;;5015606;28;20029;-67
2021/06/22 13:05:51;;;;;;;27.65;6.45;;;49.30;42.70;;;;;;5015062;28;20068;-69
2021/06/22 13:08:24;;;;;;;37.13;7.78;;;49.50;46.00;;;;;;5015028;28;20033;-68
2021/06/22 13:10:55;;;;;;;22.50;6.05;;;49.30;40.70;;;;;;5014071;28;20033;-66
2021/06/22 13:13:27;;;;;;;33.72;7.03;;;49.50;40.10;;;;;;5015306;28;20034;-69
2021/06/22 13:16:14;;;;;;;20.45;6.60;;;48.70;40.00;;;;;;5014218;28;20374;-67
2021/06/22 13:19:08;;;;;;;25.35;6.65;;;49.20;40.70;;;;;;5015120;28;20113;-68
2021/06/22 13:21:38;;;;;;;23.30;5.97;;;47.60;40.50;;;;;;5015055;28;20026;-69
2021/06/22 13:24:04;;;;;;;;;;;;;;;;;;5015533;28;20104;-70
2021/06/22 13:26:30;;;;;;;30.60;6.32;;;49.20;45.10;;;;;;5014948;28;19909;-69
2021/06/22 13:28:58;;;;;;;23.33;6.10;;;49.60;40.60;;;;;;5013591;28;20069;-67
2021/06/22 13:31:24;;;;;;;30.05;7.05;;;50.10;53.90;;;;;;5014076;28;20038;-66
2021/06/22 13:34:06;;;;;;;34.50;7.05;;;49.90;55.90;;;;;;5014452;28;20490;-66
2021/06/22 13:36:32;;;;;;;27.33;6.97;;;49.60;40.10;;;;;;5014390;28;20045;-68
2021/06/22 13:39:10;;;;;;;32.33;6.65;;;50.10;49.00;;;;;;5013162;28;20030;-67
2021/06/22 13:41:46;;;;;;;27.80;6.63;;;50.20;50.90;;;;;;5014608;28;20036;-68
2021/06/22 13:44:13;;;;;;;23.90;6.53;;;50.50;39.70;;;;;;5014550;28;20038;-68
2021/06/22 13:46:39;;;;;;;25.27;6.07;;;50.60;39.50;;;;;;5014527;28;20029;-67
2021/06/22 13:49:05;;;;;;;32.65;7.18;;;51.00;46.20;;;;;;5014601;28;20049;-67
2021/06/22 13:51:33;;;;;;;24.17;6.70;;;50.90;38.60;;;;;;5014559;28;20026;-67
2021/06/22 13:54:10;;;;;;;30.08;6.45;;;50.80;40.10;;;;;;5014810;28;20029;-68
2021/06/22 13:56:37;;;;;;;26.70;7.20;;;50.10;38.70;;;;;;5013024;28;20057;-68
2021/06/22 13:59:04;;;;;;;25.65;6.10;;;50.40;39.40;;;;;;5014120;28;20457;-70
2021/06/22 14:01:31;;;;;;;25.70;6.35;;;50.50;39.80;;;;;;5014271;28;20065;-71
2021/06/22 14:04:01;;;;;;;25.75;6.30;;;50.20;39.30;;;;;;5012872;28;20025;-71
2021/06/22 14:06:28;;;;;;;19.38;5.93;;;50.30;40.20;;;;;;5013949;28;20426;-70
2021/06/22 14:08:54;;;;;;;30.65;7.90;;;50.70;39.40;;;;;;5013430;28;20128;-69